Archival Weather

Snohomish County (Paine Fld)

Everett, Washington (KPAE)

Report from: Friday, November 10, 2023 1:53 PM PST
Current time: Sunday, June 16, 2024 11:36 PM PDT

Current weather – Weather history – Daily summaries
Weather forecast

Temperature9.4°C (48.9°F)
Wind chill6.0°C (42.7°F)
Dew point5.0°C (41.0°F)
Winds 15 kts (7.7 m/s, 17.3 mph) South-Southeast (160°)
Wind gusts 23 kts (11.8 m/s, 26.5 mph)
Visibility10 mi. (16.1 km)
Clouds Few clouds 7,500 ft. (2,286 m)
Altimeter30.08 in.Hg (1019 mB)
PrecipitiationTrace
Precip. events Rain ended 9:19 PM
Relative humidity74 %
Density altitude-734 ft. (-224 m)
Sea-level pressure101.9 kPa (1019 mB, 30.09 in.Hg)
Remarks Automated weather observing station with precipitation discriminator
Flight conditions Visual Meteorological Conditions
Raw dataKPAE 102153Z 16015G23KT 10SM FEW075 09/05 A3008 RMK AO2 RAE19 SLP189 P0000 T00940050
An error has occurred. This application may no longer respond until reloaded. Reload 🗙